Time;durP1;ratioP1;P1;durP2;ratioP2;P2;SDS_P1;SDS_P2;PMS_P1;PMS_P2;Temp;Humidity;BMP_temperature;BMP_pressure;BME280_temperature;BME280_humidity;BME280_pressure;Samples;Min_cycle;Max_cycle;Signal;HPM_P1;HPM_P2
2023/04/04 00:01:01;;;;;;;11.25;2.72;;;21.20;99.90;;;;;;5052804;28;20199;-76
2023/04/04 00:03:32;;;;;;;7.57;2.08;;;21.30;99.90;;;;;;5061753;28;20210;-75
2023/04/04 00:06:05;;;;;;;11.38;2.75;;;21.30;99.90;;;;;;5082532;28;20195;-76
2023/04/04 00:08:36;;;;;;;7.90;2.25;;;21.40;99.90;;;;;;5084531;28;20198;-76
2023/04/04 00:11:07;;;;;;;9.23;2.42;;;21.50;99.90;;;;;;5087820;28;20206;-76
2023/04/04 00:13:38;;;;;;;6.57;2.15;;;21.70;99.90;;;;;;5077063;28;20220;-76
2023/04/04 00:16:11;;;;;;;7.30;2.10;;;21.80;99.90;;;;;;5071924;28;20329;-77
2023/04/04 00:18:42;;;;;;;6.90;2.20;;;21.90;99.90;;;;;;5087616;28;20203;-76
2023/04/04 00:21:16;;;;;;;9.00;1.83;;;22.00;99.90;;;;;;5055110;28;20226;-76
2023/04/04 00:23:47;;;;;;;5.55;1.95;;;22.10;99.90;;;;;;5052556;28;20238;-76
2023/04/04 00:26:19;;;;;;;8.18;2.00;;;22.20;99.90;;;;;;5053170;28;20203;-77
2023/04/04 00:28:50;;;;;;;8.85;2.30;;;22.30;99.90;;;;;;5052768;28;20351;-76
2023/04/04 00:31:21;;;;;;;6.35;1.58;;;22.30;99.90;;;;;;5053695;28;21195;-76
2023/04/04 00:33:52;;;;;;;7.40;1.60;;;22.40;99.90;;;;;;5052695;28;20203;-76
2023/04/04 00:36:25;;;;;;;7.97;1.73;;;22.50;99.90;;;;;;5069146;28;20588;-77
2023/04/04 00:38:56;;;;;;;6.68;1.98;;;22.70;99.90;;;;;;5067607;28;20200;-77
2023/04/04 00:41:28;;;;;;;7.78;1.48;;;22.70;99.90;;;;;;5052864;28;20191;-76
2023/04/04 00:43:59;;;;;;;6.68;1.50;;;22.80;99.90;;;;;;5052814;28;20282;-77
2023/04/04 00:46:30;;;;;;;6.32;1.60;;;22.90;99.90;;;;;;5051617;28;20645;-77
2023/04/04 00:49:01;;;;;;;5.50;1.40;;;23.10;99.90;;;;;;5052427;28;20223;-77
2023/04/04 00:51:34;;;;;;;9.18;1.40;;;23.10;99.90;;;;;;5051675;28;20223;-77
2023/04/04 00:54:06;;;;;;;4.97;1.45;;;23.20;99.90;;;;;;5052911;28;20199;-77
2023/04/04 00:56:40;;;;;;;6.75;1.33;;;23.20;99.90;;;;;;5052446;28;20960;-77
2023/04/04 00:59:12;;;;;;;5.63;1.40;;;23.20;99.90;;;;;;5051824;28;20195;-77
2023/04/04 01:01:43;;;;;;;4.97;1.27;;;23.40;99.90;;;;;;5081902;28;20700;-77
2023/04/04 01:04:14;;;;;;;8.05;1.38;;;23.40;99.90;;;;;;5079073;28;20203;-77
2023/04/04 01:06:49;;;;;;;5.68;1.42;;;23.50;99.90;;;;;;5072928;28;20650;-78
2023/04/04 01:09:20;;;;;;;9.60;1.65;;;23.60;99.90;;;;;;5090559;28;20203;-77
2023/04/04 01:11:52;;;;;;;7.63;1.50;;;23.70;99.90;;;;;;5087901;28;20199;-77
2023/04/04 01:14:23;;;;;;;4.38;1.30;;;23.80;99.90;;;;;;5072139;28;20232;-78
2023/04/04 01:16:55;;;;;;;2.80;1.10;;;23.90;99.90;;;;;;5068733;28;20216;-77
2023/04/04 01:19:32;;;;;;;7.47;1.38;;;23.90;99.90;;;;;;5047668;28;20196;-77
2023/04/04 01:22:06;;;;;;;4.97;1.10;;;23.70;99.90;;;;;;5049856;28;20336;-77
2023/04/04 01:24:37;;;;;;;7.95;1.40;;;23.70;99.90;;;;;;5050498;28;20194;-76
2023/04/04 01:27:10;;;;;;;3.78;1.08;;;23.70;99.90;;;;;;5050746;28;20292;-76
2023/04/04 01:29:42;;;;;;;5.05;1.23;;;23.80;99.90;;;;;;5051397;28;20207;-76
2023/04/04 01:32:20;;;;;;;7.38;1.45;;;23.90;99.90;;;;;;5050061;28;20200;-76
2023/04/04 01:35:00;;;;;;;5.15;1.63;;;24.00;99.90;;;;;;5051089;28;20211;-76
2023/04/04 01:37:34;;;;;;;5.38;1.35;;;24.20;99.90;;;;;;5049765;28;20230;-77
2023/04/04 01:40:14;;;;;;;4.10;1.20;;;24.30;99.90;;;;;;5050951;28;20199;-77
2023/04/04 01:42:48;;;;;;;7.18;1.30;;;24.50;99.90;;;;;;5050694;28;20670;-77
2023/04/04 01:45:19;;;;;;;6.07;1.40;;;24.50;99.90;;;;;;5047790;28;20204;-77
2023/04/04 01:47:50;;;;;;;5.07;1.45;;;24.60;99.90;;;;;;5051030;28;20663;-77
2023/04/04 01:50:21;;;;;;;4.07;1.30;;;24.70;99.90;;;;;;5048548;28;20204;-78
2023/04/04 01:52:52;;;;;;;7.13;1.38;;;24.80;99.90;;;;;;5050040;28;20682;-78
2023/04/04 01:55:24;;;;;;;4.88;1.45;;;24.90;99.90;;;;;;5051127;28;20228;-77
2023/04/04 01:57:57;;;;;;;5.18;1.55;;;24.90;99.90;;;;;;5050748;28;20714;-78
2023/04/04 02:00:28;;;;;;;4.40;1.45;;;25.00;99.90;;;;;;5049441;28;20566;-77
2023/04/04 02:02:59;;;;;;;3.00;0.82;;;25.10;99.90;;;;;;5047659;28;20229;-77
2023/04/04 02:05:31;;;;;;;4.13;1.00;;;25.10;99.90;;;;;;5050549;28;20199;-77
2023/04/04 02:08:02;;;;;;;4.13;1.20;;;25.20;99.90;;;;;;5051918;28;20291;-77
2023/04/04 02:10:33;;;;;;;5.65;1.40;;;25.20;99.90;;;;;;5064635;28;20219;-77
2023/04/04 02:13:06;;;;;;;4.45;0.88;;;25.30;99.90;;;;;;5079578;28;20210;-78
2023/04/04 02:15:38;;;;;;;3.45;0.93;;;25.30;99.90;;;;;;5085494;28;20283;-78
2023/04/04 02:18:09;;;;;;;4.68;1.13;;;25.30;99.90;;;;;;5084328;28;20223;-78
2023/04/04 02:20:40;;;;;;;4.63;1.00;;;25.30;99.90;;;;;;5090426;28;20202;-77
2023/04/04 02:23:11;;;;;;;2.80;0.80;;;25.30;99.90;;;;;;5081484;28;20226;-78
2023/04/04 02:25:42;;;;;;;3.55;1.00;;;25.40;99.90;;;;;;5075032;28;20199;-77
2023/04/04 02:28:15;;;;;;;2.90;0.75;;;25.50;99.90;;;;;;5087523;28;20195;-79
2023/04/04 02:30:46;;;;;;;4.13;0.80;;;25.60;99.90;;;;;;5088044;28;20203;-78
2023/04/04 02:33:17;;;;;;;4.72;0.90;;;25.60;99.90;;;;;;5084837;28;20195;-78
2023/04/04 02:35:48;;;;;;;3.05;0.80;;;25.40;99.90;;;;;;5090025;28;20196;-78
2023/04/04 02:38:19;;;;;;;2.70;0.70;;;25.30;99.90;;;;;;5089880;28;20763;-78
2023/04/04 02:40:50;;;;;;;2.40;0.80;;;25.20;99.90;;;;;;5083807;28;20203;-78
2023/04/04 02:43:23;;;;;;;3.10;0.85;;;25.00;99.90;;;;;;5088336;28;20225;-78
2023/04/04 02:45:54;;;;;;;3.35;0.73;;;24.90;99.90;;;;;;5090846;28;20198;-78
2023/04/04 02:48:26;;;;;;;3.55;1.00;;;24.80;99.90;;;;;;5094389;28;20211;-78
2023/04/04 02:50:59;;;;;;;6.00;1.10;;;24.70;99.90;;;;;;5077289;28;20227;-77
2023/04/04 02:53:30;;;;;;;4.30;0.90;;;24.70;99.90;;;;;;5074418;28;20192;-77
2023/04/04 02:56:03;;;;;;;4.50;1.25;;;24.50;99.90;;;;;;5079547;28;20199;-77
2023/04/04 02:58:37;;;;;;;7.10;1.20;;;24.60;99.90;;;;;;5092845;28;20215;-78
2023/04/04 03:01:08;;;;;;;3.38;0.80;;;24.50;99.90;;;;;;5096306;28;20563;-77
2023/04/04 03:03:40;;;;;;;5.10;0.90;;;24.40;99.90;;;;;;5093723;28;20646;-78
2023/04/04 03:06:14;;;;;;;3.90;0.82;;;24.50;99.90;;;;;;5092138;28;20593;-78
2023/04/04 03:08:50;;;;;;;3.50;0.77;;;24.40;99.90;;;;;;5075131;28;20199;-78
2023/04/04 03:11:22;;;;;;;4.13;0.90;;;24.40;99.90;;;;;;5088580;28;20199;-78
2023/04/04 03:13:55;;;;;;;4.75;1.02;;;24.40;99.90;;;;;;5073838;28;20307;-78
2023/04/04 03:16:27;;;;;;;2.75;0.85;;;24.30;99.90;;;;;;5087075;28;20191;-78
2023/04/04 03:18:59;;;;;;;4.80;0.90;;;24.30;99.90;;;;;;5095172;28;20227;-78
2023/04/04 03:21:30;;;;;;;3.22;0.75;;;24.40;99.90;;;;;;5088938;28;20219;-78
2023/04/04 03:24:01;;;;;;;5.78;1.02;;;24.70;99.90;;;;;;5073368;28;20560;-77
2023/04/04 03:26:33;;;;;;;4.85;0.80;;;24.80;99.90;;;;;;5074805;28;20207;-78
2023/04/04 03:29:06;;;;;;;3.33;0.70;;;25.00;99.90;;;;;;5074574;28;20203;-78
2023/04/04 03:31:38;;;;;;;5.22;0.85;;;25.20;99.90;;;;;;5081124;28;20206;-78
2023/04/04 03:34:09;;;;;;;4.68;0.80;;;25.40;99.90;;;;;;5089341;28;20195;-78
2023/04/04 03:36:42;;;;;;;4.28;1.13;;;25.60;99.90;;;;;;5081854;28;20215;-76
2023/04/04 03:39:13;;;;;;;4.85;0.98;;;25.80;99.90;;;;;;5094307;28;20230;-76
2023/04/04 03:41:45;;;;;;;3.08;0.75;;;25.80;99.90;;;;;;5079061;28;20241;-77
2023/04/04 03:44:18;;;;;;;4.07;0.93;;;25.90;99.90;;;;;;5093654;28;20577;-77
2023/04/04 03:46:49;;;;;;;3.75;0.90;;;25.90;99.90;;;;;;5089991;28;20195;-78
2023/04/04 03:49:20;;;;;;;5.05;0.90;;;25.80;99.90;;;;;;5084611;28;20266;-77
2023/04/04 03:51:51;;;;;;;6.22;1.02;;;25.60;99.90;;;;;;5073771;28;20608;-78
2023/04/04 03:54:22;;;;;;;5.07;0.98;;;25.50;99.90;;;;;;5089563;28;20662;-78
2023/04/04 03:56:55;;;;;;;7.72;1.40;;;25.30;99.90;;;;;;5093270;28;20188;-78
2023/04/04 03:59:28;;;;;;;4.55;1.05;;;25.20;99.90;;;;;;5079706;28;20224;-78
2023/04/04 04:01:59;;;;;;;2.33;0.70;;;24.90;99.90;;;;;;5088504;28;20195;-78
2023/04/04 04:04:31;;;;;;;3.72;0.93;;;24.90;99.90;;;;;;5079176;28;20195;-79
2023/04/04 04:07:02;;;;;;;2.45;0.70;;;24.80;99.90;;;;;;5077085;28;20196;-78
2023/04/04 04:09:34;;;;;;;4.72;1.05;;;24.80;99.90;;;;;;5077669;28;20313;-78
2023/04/04 04:12:05;;;;;;;4.93;1.23;;;24.80;99.90;;;;;;5088898;28;20202;-78
2023/04/04 04:14:38;;;;;;;5.25;0.90;;;24.80;99.90;;;;;;5091351;28;20225;-80
2023/04/04 04:17:09;;;;;;;2.90;0.90;;;24.90;99.90;;;;;;5091188;28;20291;-76
2023/04/04 04:19:40;;;;;;;3.17;0.82;;;25.00;99.90;;;;;;5093116;28;20249;-76
2023/04/04 04:22:11;;;;;;;4.85;0.88;;;25.10;99.90;;;;;;5092855;28;20196;-76
2023/04/04 04:24:42;;;;;;;5.78;1.20;;;25.20;99.90;;;;;;5075370;28;20196;-77
2023/04/04 04:27:14;;;;;;;5.32;0.85;;;25.20;99.90;;;;;;5085372;28;20200;-76
2023/04/04 04:29:47;;;;;;;3.65;0.80;;;25.30;99.90;;;;;;5081617;28;20207;-77
2023/04/04 04:32:19;;;;;;;3.55;0.85;;;25.30;99.90;;;;;;5087320;28;20942;-77
2023/04/04 04:34:52;;;;;;;2.95;0.80;;;25.40;99.90;;;;;;5089976;28;20198;-77
2023/04/04 04:37:24;;;;;;;3.03;0.88;;;25.30;99.90;;;;;;5073064;28;20226;-76
2023/04/04 04:39:56;;;;;;;5.60;1.00;;;25.30;99.90;;;;;;5075783;28;20663;-77
2023/04/04 04:42:28;;;;;;;4.90;0.90;;;25.20;99.90;;;;;;5078521;28;20214;-77
2023/04/04 04:45:01;;;;;;;2.60;0.75;;;25.20;99.90;;;;;;5072152;28;20204;-77
2023/04/04 04:47:34;;;;;;;5.65;0.85;;;25.10;99.90;;;;;;5074676;28;20196;-77
2023/04/04 04:50:05;;;;;;;3.50;0.70;;;25.20;99.90;;;;;;5087354;28;20203;-77
2023/04/04 04:52:38;;;;;;;3.25;0.80;;;25.20;99.90;;;;;;5073717;28;20196;-78
2023/04/04 04:55:10;;;;;;;2.65;0.70;;;25.30;99.90;;;;;;5072689;28;20533;-78
2023/04/04 04:57:41;;;;;;;3.53;0.70;;;25.30;99.90;;;;;;5072312;28;20283;-77
2023/04/04 05:00:16;;;;;;;3.78;0.90;;;25.30;99.90;;;;;;5076705;28;20187;-77
2023/04/04 05:02:47;;;;;;;4.82;1.05;;;25.30;99.90;;;;;;5093031;28;20564;-77
2023/04/04 05:05:18;;;;;;;3.97;0.80;;;25.30;99.90;;;;;;5089388;28;20225;-77
2023/04/04 05:07:50;;;;;;;2.95;0.70;;;25.40;99.90;;;;;;5077402;28;20200;-76
2023/04/04 05:10:21;;;;;;;3.80;1.27;;;25.40;99.90;;;;;;5076596;28;20191;-77
2023/04/04 05:12:52;;;;;;;4.57;0.98;;;25.30;99.90;;;;;;5077931;28;20229;-77
2023/04/04 05:15:28;;;;;;;5.35;1.08;;;25.30;99.90;;;;;;5073219;28;20307;-76
2023/04/04 05:17:59;;;;;;;4.22;1.00;;;25.40;99.90;;;;;;5089995;28;20195;-77
2023/04/04 05:20:30;;;;;;;5.95;1.00;;;25.30;99.90;;;;;;5090109;28;20196;-76
2023/04/04 05:23:01;;;;;;;4.90;0.90;;;25.20;99.90;;;;;;5074477;28;20196;-77
2023/04/04 05:25:33;;;;;;;4.43;1.00;;;25.10;99.90;;;;;;5074030;28;20676;-77
2023/04/04 05:28:04;;;;;;;7.60;0.90;;;25.00;99.90;;;;;;5080780;28;20199;-77
2023/04/04 05:30:38;;;;;;;2.63;0.77;;;24.90;99.90;;;;;;5090966;28;20207;-78
2023/04/04 05:33:11;;;;;;;6.47;1.08;;;24.80;99.90;;;;;;5083165;28;20202;-78
2023/04/04 05:35:42;;;;;;;4.63;1.27;;;24.70;99.90;;;;;;5091052;28;20202;-77
2023/04/04 05:38:13;;;;;;;6.00;1.10;;;24.80;99.90;;;;;;5088683;28;20227;-78
2023/04/04 05:40:44;;;;;;;5.50;1.20;;;24.70;99.90;;;;;;5086770;28;20191;-78
2023/04/04 05:43:15;;;;;;;10.15;1.23;;;24.90;99.90;;;;;;5086433;28;20199;-78
2023/04/04 05:45:48;;;;;;;4.25;0.80;;;24.90;99.90;;;;;;5080070;28;20191;-78
2023/04/04 05:48:19;;;;;;;9.88;1.75;;;25.00;99.90;;;;;;5074198;28;20210;-77
2023/04/04 05:50:51;;;;;;;4.72;1.10;;;25.10;99.90;;;;;;5077032;28;20191;-78
2023/04/04 05:53:22;;;;;;;3.85;1.00;;;24.90;99.90;;;;;;5092913;28;20213;-77
2023/04/04 05:55:55;;;;;;;5.03;1.20;;;24.90;99.90;;;;;;5092645;28;20194;-77
2023/04/04 05:58:27;;;;;;;3.95;1.00;;;24.90;99.90;;;;;;5072448;28;20218;-77
2023/04/04 06:01:01;;;;;;;5.45;1.17;;;24.90;99.90;;;;;;5084909;28;20199;-78
2023/04/04 06:03:33;;;;;;;6.82;1.33;;;25.10;99.90;;;;;;5091017;28;20191;-77
2023/04/04 06:06:05;;;;;;;3.53;0.80;;;25.30;99.90;;;;;;5087426;28;20721;-76
2023/04/04 06:08:36;;;;;;;3.72;0.77;;;25.40;99.90;;;;;;5093769;28;20219;-77
2023/04/04 06:11:07;;;;;;;5.85;1.42;;;25.60;99.90;;;;;;5089501;28;20593;-77
2023/04/04 06:13:38;;;;;;;4.80;1.17;;;25.70;99.90;;;;;;5089492;28;20594;-78
2023/04/04 06:16:12;;;;;;;5.07;1.05;;;25.70;99.90;;;;;;5091256;28;20278;-77
2023/04/04 06:18:43;;;;;;;5.10;1.38;;;25.80;99.90;;;;;;5085917;28;20689;-77
2023/04/04 06:21:15;;;;;;;5.03;1.30;;;25.80;99.90;;;;;;5092279;28;20200;-77
2023/04/04 06:23:46;;;;;;;4.75;1.00;;;25.80;99.90;;;;;;5096792;28;20218;-77
2023/04/04 06:26:17;;;;;;;5.20;1.10;;;25.80;99.90;;;;;;5094572;28;20218;-76
2023/04/04 06:28:54;;;;;;;2.60;0.73;;;25.70;99.90;;;;;;5091043;28;20611;-79
2023/04/04 06:31:28;;;;;;;5.35;1.08;;;25.70;99.90;;;;;;5094704;28;20255;-78
2023/04/04 06:34:01;;;;;;;5.85;0.98;;;25.60;99.90;;;;;;5093739;28;20237;-77
2023/04/04 06:36:32;;;;;;;4.10;1.00;;;25.70;99.90;;;;;;5093774;28;20215;-77
2023/04/04 06:39:05;;;;;;;3.08;0.95;;;25.90;99.90;;;;;;5084089;28;20225;-77
2023/04/04 06:41:36;;;;;;;3.22;0.63;;;25.90;99.90;;;;;;5093927;28;20200;-77
2023/04/04 06:44:07;;;;;;;2.67;0.90;;;26.00;99.90;;;;;;5092095;28;20224;-76
2023/04/04 06:46:43;;;;;;;4.63;0.90;;;26.10;99.90;;;;;;5077469;28;20187;-76
2023/04/04 06:49:14;;;;;;;4.78;1.13;;;26.10;99.90;;;;;;5083367;28;20191;-76
2023/04/04 06:51:45;;;;;;;4.47;0.85;;;26.10;99.90;;;;;;5092949;28;20279;-77
2023/04/04 06:54:16;;;;;;;3.92;0.98;;;26.10;99.90;;;;;;5094112;28;20195;-76
2023/04/04 06:56:47;;;;;;;4.45;0.90;;;25.90;99.90;;;;;;5093615;28;20200;-77
2023/04/04 06:59:18;;;;;;;5.45;0.90;;;25.90;99.90;;;;;;5083984;28;20228;-76
2023/04/04 07:01:52;;;;;;;3.90;0.90;;;25.90;99.90;;;;;;5073553;28;20560;-77
2023/04/04 07:04:23;;;;;;;4.00;1.08;;;25.80;99.90;;;;;;5076828;28;20281;-77
2023/04/04 07:06:54;;;;;;;2.95;0.80;;;25.70;99.90;;;;;;5081647;28;22913;-77
2023/04/04 07:09:25;;;;;;;4.30;0.90;;;25.70;99.90;;;;;;5076283;28;20248;-77
2023/04/04 07:11:56;;;;;;;5.07;0.95;;;25.40;99.90;;;;;;5091846;28;20217;-77
2023/04/04 07:14:27;;;;;;;3.78;0.70;;;25.30;99.90;;;;;;5084364;28;20227;-78
2023/04/04 07:17:01;;;;;;;2.90;0.80;;;25.10;99.90;;;;;;5072837;28;20651;-78
2023/04/04 07:19:32;;;;;;;6.00;0.90;;;24.90;99.90;;;;;;5072465;28;20318;-78
2023/04/04 07:22:03;;;;;;;2.47;1.00;;;24.80;99.90;;;;;;5073287;28;20196;-78
2023/04/04 07:24:34;;;;;;;6.65;1.20;;;24.60;99.90;;;;;;5073618;28;20188;-78
2023/04/04 07:27:05;;;;;;;5.63;1.20;;;24.50;99.90;;;;;;5076898;28;20207;-77
2023/04/04 07:29:36;;;;;;;3.60;0.73;;;24.40;99.90;;;;;;5073907;28;21898;-78
2023/04/04 07:32:10;;;;;;;3.55;0.70;;;24.30;99.90;;;;;;5079468;28;20199;-77
2023/04/04 07:34:41;;;;;;;2.13;0.63;;;24.20;99.90;;;;;;5074866;28;20282;-77
2023/04/04 07:37:12;;;;;;;5.82;1.17;;;24.20;99.90;;;;;;5090736;28;20651;-77
2023/04/04 07:39:43;;;;;;;3.17;1.00;;;24.10;99.90;;;;;;5085412;28;20219;-78
2023/04/04 07:42:15;;;;;;;4.38;0.75;;;24.00;99.90;;;;;;5079488;28;20674;-78
2023/04/04 07:44:46;;;;;;;4.10;0.85;;;23.90;99.90;;;;;;5083304;28;20200;-77
2023/04/04 07:47:19;;;;;;;5.55;1.08;;;23.80;99.90;;;;;;5091155;28;20199;-78
2023/04/04 07:49:50;;;;;;;3.03;0.85;;;23.70;99.90;;;;;;5085472;28;20738;-78
2023/04/04 07:52:21;;;;;;;3.92;0.90;;;23.70;99.90;;;;;;5072445;28;20699;-78
2023/04/04 07:54:52;;;;;;;5.00;1.10;;;23.60;99.90;;;;;;5076395;28;20196;-78
2023/04/04 07:57:24;;;;;;;5.50;1.23;;;23.60;99.90;;;;;;5090298;28;20673;-79
2023/04/04 07:59:55;;;;;;;2.85;0.80;;;23.50;99.90;;;;;;5085025;28;20304;-78
2023/04/04 08:02:28;;;;;;;3.60;0.90;;;23.50;99.90;;;;;;5086406;28;20199;-78
2023/04/04 08:04:59;;;;;;;2.90;0.85;;;23.40;99.90;;;;;;5080480;28;20210;-77
2023/04/04 08:07:30;;;;;;;2.50;0.73;;;23.40;99.90;;;;;;5078977;28;20205;-77
2023/04/04 08:10:01;;;;;;;2.65;0.90;;;23.30;99.90;;;;;;5089164;28;20670;-77
2023/04/04 08:12:32;;;;;;;3.90;1.13;;;23.30;99.90;;;;;;5082379;28;20196;-77
2023/04/04 08:15:03;;;;;;;5.88;1.27;;;23.30;99.90;;;;;;5072236;28;20228;-76
2023/04/04 08:17:38;;;;;;;3.13;0.90;;;23.20;99.90;;;;;;5072178;28;20573;-77
2023/04/04 08:20:10;;;;;;;3.53;1.10;;;23.20;99.90;;;;;;5072412;28;20218;-77
2023/04/04 08:22:41;;;;;;;8.85;3.42;;;23.20;99.90;;;;;;5080346;28;20192;-77
2023/04/04 08:25:13;;;;;;;5.63;2.60;;;23.10;99.90;;;;;;5081569;28;20200;-77
2023/04/04 08:27:44;;;;;;;5.32;2.45;;;23.10;99.90;;;;;;5073149;28;20196;-76
2023/04/04 08:30:16;;;;;;;5.15;1.83;;;23.10;99.90;;;;;;5072415;28;20206;-77
2023/04/04 08:33:11;;;;;;;5.30;1.60;;;23.00;99.90;;;;;;5079209;28;20188;-77
2023/04/04 08:35:42;;;;;;;3.78;1.30;;;23.00;99.90;;;;;;5091006;28;20191;-77
2023/04/04 08:38:13;;;;;;;3.80;1.50;;;23.00;99.90;;;;;;5091125;28;20275;-78
2023/04/04 08:40:47;;;;;;;4.97;1.40;;;23.00;99.90;;;;;;5092270;28;20229;-77
2023/04/04 08:43:20;;;;;;;4.22;1.63;;;23.00;99.90;;;;;;5091730;28;20277;-77
2023/04/04 08:45:54;;;;;;;4.30;1.60;;;23.00;99.90;;;;;;5089262;28;20749;-78
2023/04/04 08:48:29;;;;;;;3.58;1.33;;;22.90;99.90;;;;;;5091688;28;20213;-76
2023/04/04 08:51:02;;;;;;;5.63;1.73;;;22.90;99.90;;;;;;5086873;28;20208;-77
2023/04/04 08:53:35;;;;;;;6.40;1.75;;;22.90;99.90;;;;;;5089057;28;20255;-77
2023/04/04 08:56:07;;;;;;;5.05;1.63;;;22.90;99.90;;;;;;5090025;28;20718;-77
2023/04/04 08:58:39;;;;;;;6.35;2.60;;;22.90;99.90;;;;;;5091483;28;20195;-77
2023/04/04 09:01:10;;;;;;;5.25;2.63;;;22.80;99.90;;;;;;5091014;28;20227;-77
2023/04/04 09:03:44;;;;;;;7.70;2.60;;;22.80;99.90;;;;;;5084754;28;20191;-78
2023/04/04 09:06:18;;;;;;;5.93;2.67;;;22.80;99.90;;;;;;5085670;28;20194;-77
2023/04/04 09:08:50;;;;;;;3.75;2.08;;;22.80;99.90;;;;;;5077444;28;20249;-76
2023/04/04 09:11:23;;;;;;;3.75;1.60;;;22.80;99.90;;;;;;5091082;28;20202;-77
2023/04/04 09:13:56;;;;;;;6.43;1.80;;;22.80;99.90;;;;;;5078757;28;20308;-77
2023/04/04 09:16:28;;;;;;;4.90;1.60;;;22.70;99.90;;;;;;5087204;28;20195;-77
2023/04/04 09:19:01;;;;;;;7.45;1.70;;;22.70;99.90;;;;;;5075769;28;20191;-77
2023/04/04 09:21:36;;;;;;;4.72;1.67;;;22.70;99.90;;;;;;5078502;28;20208;-76
2023/04/04 09:24:07;;;;;;;4.95;2.00;;;22.80;99.90;;;;;;5080709;28;20688;-76
2023/04/04 09:26:50;;;;;;;4.53;1.80;;;22.70;99.90;;;;;;5085510;28;20194;-77
2023/04/04 09:29:22;;;;;;;6.63;1.73;;;22.70;99.90;;;;;;5076356;28;20195;-76
2023/04/04 09:31:54;;;;;;;6.32;1.58;;;22.70;99.90;;;;;;5085614;28;20677;-77
2023/04/04 09:34:30;;;;;;;6.65;1.70;;;22.70;99.90;;;;;;5087440;28;20297;-77
2023/04/04 09:37:01;;;;;;;4.93;1.70;;;22.70;99.90;;;;;;5081710;28;20268;-77
2023/04/04 09:39:33;;;;;;;3.58;1.65;;;22.70;99.90;;;;;;5084674;28;20221;-77
2023/04/04 09:42:05;;;;;;;6.15;2.10;;;22.60;99.90;;;;;;5080740;28;20584;-76
2023/04/04 09:44:37;;;;;;;5.90;1.90;;;22.60;99.90;;;;;;5090605;28;20195;-77
2023/04/04 09:47:26;;;;;;;4.88;1.65;;;22.50;99.90;;;;;;5074973;28;20206;-76
2023/04/04 09:50:01;;;;;;;3.65;1.67;;;22.50;99.90;;;;;;5110685;28;20692;-77
2023/04/04 09:52:35;;;;;;;3.25;1.70;;;22.50;99.90;;;;;;5111420;28;20656;-77
2023/04/04 09:55:08;;;;;;;5.53;1.90;;;22.50;99.90;;;;;;5078180;28;20202;-77
2023/04/04 09:57:39;;;;;;;5.32;1.77;;;22.40;99.90;;;;;;5094280;28;20339;-77
2023/04/04 10:00:14;;;;;;;6.05;1.65;;;22.40;99.90;;;;;;5095128;28;20219;-77
2023/04/04 10:02:51;;;;;;;7.20;1.90;;;22.40;99.90;;;;;;5087792;28;20195;-77
2023/04/04 10:05:26;;;;;;;5.90;2.05;;;22.40;99.90;;;;;;5103270;28;20452;-78
2023/04/04 10:07:59;;;;;;;5.40;1.80;;;22.40;99.90;;;;;;5098055;28;20202;-76
2023/04/04 10:10:33;;;;;;;6.60;1.90;;;22.40;99.90;;;;;;5100291;28;20198;-77
2023/04/04 10:13:04;;;;;;;3.88;1.90;;;22.40;99.90;;;;;;5092908;28;20205;-77
2023/04/04 10:15:39;;;;;;;5.25;1.88;;;22.40;99.90;;;;;;5098819;28;20227;-77
2023/04/04 10:18:11;;;;;;;4.50;1.90;;;22.40;99.90;;;;;;5098653;28;20314;-77
2023/04/04 10:20:45;;;;;;;4.70;1.35;;;22.30;99.90;;;;;;5088201;28;20693;-77
2023/04/04 10:23:17;;;;;;;4.20;1.60;;;22.30;99.90;;;;;;5084485;28;20242;-78
2023/04/04 10:25:48;;;;;;;5.65;1.85;;;22.30;99.90;;;;;;5096640;28;20654;-77
2023/04/04 10:28:20;;;;;;;5.10;1.63;;;22.20;99.90;;;;;;5092323;28;20211;-77
2023/04/04 10:30:57;;;;;;;6.63;1.63;;;22.20;99.90;;;;;;5079306;28;20550;-77
2023/04/04 10:33:39;;;;;;;6.68;1.65;;;22.10;99.90;;;;;;5093203;28;20188;-76
2023/04/04 10:36:14;;;;;;;6.97;2.63;;;22.10;99.90;;;;;;5089524;28;20211;-77
2023/04/04 10:38:49;;;;;;;5.20;2.05;;;22.00;99.90;;;;;;5095344;28;20199;-77
2023/04/04 10:41:21;;;;;;;5.22;1.95;;;22.00;99.90;;;;;;5097323;28;20227;-78
2023/04/04 10:43:58;;;;;;;6.93;2.00;;;22.00;99.90;;;;;;5098657;28;20628;-77
2023/04/04 10:46:31;;;;;;;5.80;1.60;;;22.00;99.90;;;;;;5096812;28;20202;-77
2023/04/04 10:49:03;;;;;;;5.85;1.83;;;22.00;99.90;;;;;;5098053;28;20195;-77
2023/04/04 10:51:38;;;;;;;5.55;1.73;;;22.00;99.90;;;;;;5087880;28;20292;-77
2023/04/04 10:54:10;;;;;;;6.15;1.88;;;22.00;99.90;;;;;;5079670;28;20196;-77
2023/04/04 10:56:42;;;;;;;5.63;2.13;;;22.00;99.90;;;;;;5096129;28;20202;-77
2023/04/04 10:59:15;;;;;;;6.68;2.33;;;22.00;99.90;;;;;;5096610;28;20195;-77
2023/04/04 11:01:56;;;;;;;7.05;2.00;;;22.00;99.90;;;;;;5097554;28;20753;-76
2023/04/04 11:04:36;;;;;;;4.57;2.10;;;21.90;99.90;;;;;;5089388;28;20188;-77
2023/04/04 11:07:19;;;;;;;6.30;2.10;;;21.90;99.90;;;;;;5078148;28;20192;-79
2023/04/04 11:09:55;;;;;;;6.20;1.77;;;21.90;99.90;;;;;;5080467;28;20196;-78
2023/04/04 11:12:35;;;;;;;7.93;1.90;;;21.80;99.90;;;;;;5084981;28;20255;-77
2023/04/04 11:15:13;;;;;;;4.85;1.70;;;21.80;99.90;;;;;;5078247;28;20493;-77
2023/04/04 11:17:55;;;;;;;5.07;1.90;;;21.80;99.90;;;;;;5077981;28;20192;-77
2023/04/04 11:20:32;;;;;;;4.22;1.80;;;21.80;99.90;;;;;;5081562;28;20219;-76
2023/04/04 11:23:16;;;;;;;8.55;2.00;;;21.80;99.90;;;;;;5094842;28;20353;-77
2023/04/04 11:26:07;;;;;;;6.88;1.88;;;21.70;99.90;;;;;;5085688;28;20199;-77
2023/04/04 11:29:13;;;;;;;7.18;2.30;;;21.70;99.90;;;;;;5090273;28;20239;-77
2023/04/04 11:31:46;;;;;;;3.80;1.75;;;21.70;99.90;;;;;;5072447;28;20223;-77
2023/04/04 11:34:31;;;;;;;4.05;1.70;;;21.70;99.90;;;;;;5088558;28;20211;-78
2023/04/04 11:37:16;;;;;;;6.57;2.10;;;21.60;99.90;;;;;;5083703;28;20227;-77
2023/04/04 11:39:57;;;;;;;5.43;2.08;;;21.60;99.90;;;;;;5079183;28;20722;-78
2023/04/04 11:42:39;;;;;;;4.43;1.90;;;21.60;99.90;;;;;;5097170;28;20206;-79
2023/04/04 11:45:10;;;;;;;6.68;2.20;;;21.50;99.90;;;;;;5097035;28;20195;-78
2023/04/04 11:47:48;;;;;;;4.15;1.88;;;21.50;99.90;;;;;;5077363;28;20724;-77
2023/04/04 11:50:21;;;;;;;4.95;2.08;;;21.50;99.90;;;;;;5093510;28;20206;-77
2023/04/04 11:52:55;;;;;;;5.35;1.95;;;21.50;99.90;;;;;;5095614;28;20661;-77
2023/04/04 11:55:28;;;;;;;7.88;2.17;;;21.50;99.90;;;;;;5074976;28;20200;-77
2023/04/04 11:58:07;;;;;;;7.18;1.88;;;21.50;99.90;;;;;;5075026;28;20299;-77
2023/04/04 12:00:40;;;;;;;5.63;1.77;;;21.40;99.90;;;;;;5093998;28;20589;-77
2023/04/04 12:03:13;;;;;;;6.57;1.83;;;21.30;99.90;;;;;;5093777;28;20191;-77
2023/04/04 12:05:48;;;;;;;6.80;1.98;;;21.40;99.90;;;;;;5098734;28;20180;-77
2023/04/04 12:08:19;;;;;;;5.13;1.60;;;21.30;99.90;;;;;;5092938;28;20237;-77
2023/04/04 12:10:53;;;;;;;5.10;1.92;;;21.20;99.90;;;;;;5088421;28;20191;-77
2023/04/04 12:13:32;;;;;;;3.78;1.80;;;21.10;99.90;;;;;;5073700;28;20732;-77
2023/04/04 12:16:04;;;;;;;5.47;1.92;;;21.10;99.90;;;;;;5077859;28;20207;-76
2023/04/04 12:18:35;;;;;;;3.50;1.67;;;21.10;99.90;;;;;;5078256;28;20278;-77
2023/04/04 12:21:08;;;;;;;3.83;1.73;;;21.10;99.90;;;;;;5090737;28;20272;-77
2023/04/04 12:23:39;;;;;;;5.05;1.85;;;21.10;99.90;;;;;;5088261;28;20237;-76
2023/04/04 12:26:12;;;;;;;6.53;1.95;;;21.10;99.90;;;;;;5094136;28;20562;-77
2023/04/04 12:28:46;;;;;;;6.88;2.00;;;21.00;99.90;;;;;;5087668;28;20613;-76
2023/04/04 12:31:18;;;;;;;4.45;1.63;;;21.00;99.90;;;;;;5075851;28;20203;-77
2023/04/04 12:33:50;;;;;;;5.88;2.30;;;21.00;99.90;;;;;;5092652;28;20195;-78
2023/04/04 12:36:22;;;;;;;3.97;1.67;;;21.00;99.90;;;;;;5092405;28;20258;-77
2023/04/04 12:39:03;;;;;;;6.88;2.22;;;20.90;99.90;;;;;;5094655;28;20199;-78
2023/04/04 12:41:37;;;;;;;5.28;1.92;;;20.90;99.90;;;;;;5096628;28;20247;-78
2023/04/04 12:44:09;;;;;;;9.30;2.58;;;20.90;99.90;;;;;;5092012;28;20198;-77
2023/04/04 12:46:41;;;;;;;6.47;1.80;;;20.90;99.90;;;;;;5082336;28;20191;-78
2023/04/04 12:49:15;;;;;;;3.08;1.65;;;20.80;99.90;;;;;;5089099;28;20188;-77
2023/04/04 12:51:48;;;;;;;5.72;1.92;;;20.80;99.90;;;;;;5086461;28;20201;-78
2023/04/04 12:54:30;;;;;;;4.85;1.92;;;20.80;99.90;;;;;;5081579;28;20224;-77
2023/04/04 12:57:06;;;;;;;5.13;1.95;;;20.80;99.90;;;;;;5093389;28;20199;-77
2023/04/04 12:59:38;;;;;;;5.55;1.92;;;20.80;99.90;;;;;;5091915;28;20203;-78
2023/04/04 13:02:12;;;;;;;7.90;2.20;;;20.80;99.90;;;;;;5081221;28;20645;-77
2023/04/04 13:04:46;;;;;;;4.00;1.63;;;20.80;99.90;;;;;;5084585;28;20198;-77
2023/04/04 13:07:26;;;;;;;7.63;2.05;;;20.70;99.90;;;;;;5071046;28;20203;-77
2023/04/04 13:10:00;;;;;;;6.47;1.98;;;20.70;99.90;;;;;;5080986;28;20624;-77
2023/04/04 13:12:59;;;;;;;8.98;2.33;;;20.70;99.90;;;;;;5071515;28;20663;-78
2023/04/04 13:15:51;;;;;;;5.55;1.90;;;20.70;99.90;;;;;;5083009;28;20227;-77